Adolfo Suárez Madrid-Barajas Airport

LEMD · Madrid, Communauté de Madrid, Espagne

METAR anciennes LEMD · Aéroport international de Madrid-Barajas

Tu vois ci-dessous les METAR des derniers jours. Sélectionne une année pour parcourir les METAR plus anciens, à partir de l'année 2007.

1 décembre 2022

Temps Code Temps Temp. Vue Base cloud Vent METAR/SPECI
15:00
V
12 °C 10 km+ - 020° 020° 6 kt METAR LEMD 011400Z 02006KT 350V070 CAVOK 12/M01 Q1014 NOSIG
14:30
V
13 °C 10 km+ - 030° 030° 7 kt METAR LEMD 011330Z 03007KT 340V100 CAVOK 13/M01 Q1014 NOSIG
14:00
V
12 °C 10 km+ - 030° 030° 7 kt METAR LEMD 011300Z 03007KT 340V080 CAVOK 12/02 Q1015 NOSIG
13:30
V
12 °C 10 km+ - 050° 050° 5 kt METAR LEMD 011230Z 05005KT 330V120 CAVOK 12/00 Q1015 NOSIG
13:00
V
11 °C 10 km+ - 020° 020° 8 kt METAR LEMD 011200Z 02008KT 320V070 CAVOK 11/02 Q1015 NOSIG
12:30
V
11 °C 10 km+ - 030° 030° 8 kt METAR LEMD 011130Z 03008KT 330V090 CAVOK 11/02 Q1015 NOSIG
12:00
V
10 °C 10 km+ - 030° 030° 7 kt METAR LEMD 011100Z 03007KT 350V090 CAVOK 10/02 Q1016 NOSIG
11:30
V
10 °C 10 km+ - 020° 020° 6 kt METAR LEMD 011030Z 02006KT 330V060 CAVOK 10/03 Q1016 NOSIG
11:00
V
9 °C 10 km+ - 020° 020° 6 kt METAR LEMD 011000Z 02006KT 330V100 CAVOK 09/03 Q1016 NOSIG
10:30
V
8 °C 10 km+ - 010° 010° 5 kt METAR LEMD 010930Z 01005KT 340V060 CAVOK 08/03 Q1016 NOSIG
10:00
V
6 °C 10 km+ - 350° 350° 5 kt METAR LEMD 010900Z 35005KT 300V010 CAVOK 06/03 Q1016 NOSIG
09:30
V
5 °C 10 km+ - 330° 330° 3 kt METAR LEMD 010830Z 33003KT 300V010 CAVOK 05/03 Q1016 NOSIG
09:00
V
3 °C 10 km+ - Var Var 1 kt METAR LEMD 010800Z VRB01KT CAVOK 03/02 Q1015 NOSIG
08:30
V
2 °C 10 km+ - Var 000° 0 kt METAR LEMD 010730Z 00000KT CAVOK 02/01 Q1015 NOSIG
08:00
V
2 °C 10 km+ - Var Var 1 kt METAR LEMD 010700Z VRB01KT CAVOK 02/00 Q1015 NOSIG
07:30
V
3 °C 10 km+ - Var Var 2 kt METAR LEMD 010630Z VRB02KT CAVOK 03/02 Q1015 NOSIG
07:00
V
3 °C 10 km+ - Var Var 2 kt METAR LEMD 010600Z VRB02KT CAVOK 03/02 Q1015 NOSIG
06:30
V
3 °C 10 km+ - 330° 330° 2 kt METAR LEMD 010530Z 33002KT CAVOK 03/02 Q1014 NOSIG
06:00
V
3 °C 10 km+ - Var Var 2 kt METAR LEMD 010500Z VRB02KT CAVOK 03/02 Q1014 NOSIG
05:30
V
4 °C 10 km+ - 350° 350° 3 kt METAR LEMD 010430Z 35003KT 310V020 CAVOK 04/03 Q1014 NOSIG
05:00
V
4 °C 10 km+ - 010° 010° 3 kt METAR LEMD 010400Z 01003KT 350V050 CAVOK 04/03 Q1014 NOSIG
04:30
V
4 °C 10 km+ - 350° 350° 2 kt METAR LEMD 010330Z 35002KT CAVOK 04/03 Q1014 NOSIG
04:00
V
6 °C 10 km+ - 330° 330° 2 kt METAR LEMD 010300Z 33002KT CAVOK 06/04 Q1014 NOSIG
03:30
V
6 °C 10 km+ - Var Var 2 kt METAR LEMD 010230Z VRB02KT CAVOK 06/04 Q1015 NOSIG
03:00
V
7 °C 10 km+ - Var Var 2 kt METAR LEMD 010200Z VRB02KT CAVOK 07/05 Q1015 NOSIG
02:30
V
7 °C 10 km+ - Var Var 2 kt METAR LEMD 010130Z VRB02KT CAVOK 07/05 Q1015 NOSIG
02:00
V
7 °C 10 km+ - 310° 310° 2 kt METAR LEMD 010100Z 31002KT CAVOK 07/05 Q1015 NOSIG
01:30
V
7 °C 10 km+ - 360° 360° 3 kt METAR LEMD 010030Z 36003KT 340V040 CAVOK 07/05 Q1015 NOSIG
01:00
V
7 °C 10 km+ - Var Var 2 kt METAR LEMD 010000Z VRB02KT CAVOK 07/05 Q1015 NOSIG
00:30
V
7 °C 10 km+ - Var Var 2 kt METAR LEMD 302330Z VRB02KT CAVOK 07/04 Q1015 NOSIG
00:00
V
7 °C 10 km+ - 360° 360° 2 kt METAR LEMD 302300Z 36002KT CAVOK 07/05 Q1015 NOSIG

30 novembre 2022

Temps Code Temps Temp. Vue Base cloud Vent METAR/SPECI
23:30
V
8 °C 10 km+ - 360° 360° 2 kt METAR LEMD 302230Z 36002KT CAVOK 08/05 Q1015 NOSIG
23:00
V
8 °C 10 km+ - 350° 350° 2 kt METAR LEMD 302200Z 35002KT CAVOK 08/05 Q1015 NOSIG
22:30
V
8 °C 10 km+ - 310° 310° 3 kt METAR LEMD 302130Z 31003KT CAVOK 08/05 Q1015 NOSIG
22:00
V
8 °C 10 km+ - 310° 310° 3 kt METAR LEMD 302100Z 31003KT CAVOK 08/04 Q1015 NOSIG
21:30
V
8 °C 10 km+ - 340° 340° 1 kt METAR LEMD 302030Z 34001KT CAVOK 08/04 Q1015 NOSIG
21:00
V
8 °C 10 km+ - 010° 010° 3 kt METAR LEMD 302000Z 01003KT CAVOK 08/04 Q1015 NOSIG
20:30
V
8 °C 10 km+ - 350° 350° 3 kt METAR LEMD 301930Z 35003KT 330V040 CAVOK 08/04 Q1015 NOSIG
20:00
V
8 °C 10 km+ - 020° 020° 1 kt METAR LEMD 301900Z 02001KT CAVOK 08/04 Q1015 NOSIG
19:30
V
9 °C 10 km+ - Var 000° 0 kt METAR LEMD 301830Z 00000KT CAVOK 09/03 Q1015 NOSIG
19:00
V
11 °C 10 km+ - Var Var 2 kt METAR LEMD 301800Z VRB02KT CAVOK 11/02 Q1015 NOSIG
18:30
V
11 °C 10 km+ - Var Var 2 kt METAR LEMD 301730Z VRB02KT CAVOK 11/02 Q1015 NOSIG
18:00
V
10 °C 10 km+ - 160° 160° 3 kt METAR LEMD 301700Z 16003KT 140V210 CAVOK 10/03 Q1014 NOSIG
17:30
V
11 °C 10 km+ - 160° 160° 5 kt METAR LEMD 301630Z 16005KT CAVOK 11/03 Q1014 NOSIG
17:00
V
11 °C 10 km+ - 170° 170° 6 kt METAR LEMD 301600Z 17006KT 130V210 CAVOK 11/02 Q1014 NOSIG
16:30
V
12 °C 10 km+ - 160° 160° 5 kt METAR LEMD 301530Z 16005KT 130V190 CAVOK 12/03 Q1014 NOSIG
16:00
V
12 °C 10 km+ - 170° 170° 5 kt METAR LEMD 301500Z 17005KT 100V230 CAVOK 12/03 Q1014 NOSIG
15:30
V
13 °C 10 km+ - 190° 190° 3 kt METAR LEMD 301430Z 19003KT 110V240 CAVOK 13/02 Q1014 NOSIG
15:00
V
12 °C 10 km+ - 120° 120° 3 kt METAR LEMD 301400Z 12003KT CAVOK 12/04 Q1015 NOSIG
14:30
V
12 °C 10 km+ - Var Var 2 kt METAR LEMD 301330Z VRB02KT CAVOK 12/04 Q1015 NOSIG
14:00
V
12 °C 10 km+ - Var Var 1 kt METAR LEMD 301300Z VRB01KT CAVOK 12/04 Q1016 NOSIG
13:30
V
10 °C 10 km+ - Var Var 1 kt METAR LEMD 301230Z VRB01KT CAVOK 10/03 Q1016 NOSIG
13:00
V
10 °C 10 km+ - Var 000° 0 kt METAR LEMD 301200Z 00000KT CAVOK 10/03 Q1016 NOSIG
12:30
V
9 °C 10 km+ - Var Var 1 kt METAR LEMD 301130Z VRB01KT CAVOK 09/04 Q1017 NOSIG
12:00
V
9 °C 10 km+ - Var Var 2 kt METAR LEMD 301100Z VRB02KT CAVOK 09/04 Q1017 NOSIG
11:30
V
8 °C 10 km+ - Var Var 1 kt METAR LEMD 301030Z VRB01KT CAVOK 08/04 Q1018 NOSIG
11:00
V
7 °C 10 km+ - Var Var 2 kt METAR LEMD 301000Z VRB02KT CAVOK 07/04 Q1018 NOSIG
10:30
V
7 °C 10 km+ - Var Var 2 kt METAR LEMD 300930Z VRB02KT CAVOK 07/04 Q1018 NOSIG
10:00
V
6 °C 10 km+ - Var Var 2 kt METAR LEMD 300900Z VRB02KT CAVOK 06/03 Q1017 NOSIG
09:30
V
4 °C 10 km+ - 360° 360° 2 kt METAR LEMD 300830Z 36002KT CAVOK 04/03 Q1017 NOSIG
09:00
V
3 °C 10 km+ - 350° 350° 2 kt METAR LEMD 300800Z 35002KT CAVOK 03/02 Q1017 NOSIG
08:30
V
3 °C 10 km+ - 010° 010° 3 kt METAR LEMD 300730Z 01003KT CAVOK 03/02 Q1017 NOSIG
08:00
V
3 °C 10 km+ - 350° 350° 2 kt METAR LEMD 300700Z 35002KT 9999 SCT076 03/01 Q1017 NOSIG
07:30
V
3 °C 10 km+ - Var Var 1 kt METAR LEMD 300630Z VRB01KT 9999 SCT070 03/02 Q1017 NOSIG
07:00
V
3 °C 10 km+ - 360° 360° 2 kt METAR LEMD 300600Z 36002KT 9999 SCT070 03/02 Q1017 NOSIG
06:30
V
4 °C 10 km+ 7.000 ft 340° 340° 2 kt METAR LEMD 300530Z 34002KT 9999 BKN070 04/02 Q1017 NOSIG
06:00
V
2 °C 10 km+ - 330° 330° 2 kt METAR LEMD 300500Z 33002KT 9999 SCT070 02/01 Q1017 NOSIG
05:30
V
3 °C 10 km+ - 320° 320° 2 kt METAR LEMD 300430Z 32002KT 9999 FEW070 03/02 Q1018 NOSIG
05:00
V
4 °C 10 km+ 7.800 ft 340° 340° 2 kt METAR LEMD 300400Z 34002KT 9999 BKN078 04/02 Q1017 NOSIG
04:30
V
4 °C 10 km+ 7.800 ft 330° 330° 3 kt METAR LEMD 300330Z 33003KT 9999 BKN078 04/02 Q1018 NOSIG
04:00
V
4 °C 10 km+ - 350° 350° 2 kt METAR LEMD 300300Z 35002KT 9999 FEW080 04/02 Q1018 NOSIG
03:30
V
4 °C 10 km+ - 330° 330° 3 kt METAR LEMD 300230Z 33003KT 9999 FEW077 04/02 Q1018 NOSIG
03:00
V
4 °C 10 km+ - Var Var 1 kt METAR LEMD 300200Z VRB01KT CAVOK 04/03 Q1018 NOSIG
02:30
V
4 °C 10 km+ - 030° 030° 2 kt METAR LEMD 300130Z 03002KT 9999 FEW079 04/03 Q1018 NOSIG
02:00
V
4 °C 10 km+ - Var 000° 0 kt METAR LEMD 300100Z 00000KT 9999 FEW079 04/03 Q1019 NOSIG
01:30
V
4 °C 10 km+ - 320° 320° 2 kt METAR LEMD 300030Z 32002KT CAVOK 04/03 Q1019 NOSIG
01:00
V
4 °C 10 km+ - 020° 020° 3 kt METAR LEMD 300000Z 02003KT 350V050 CAVOK 04/02 Q1019 NOSIG
00:30
V
5 °C 10 km+ - Var Var 2 kt METAR LEMD 292330Z VRB02KT CAVOK 05/02 Q1019 NOSIG
00:00
V
5 °C 10 km+ - Var Var 2 kt METAR LEMD 292300Z VRB02KT CAVOK 05/03 Q1019 NOSIG

29 novembre 2022

Temps Code Temps Temp. Vue Base cloud Vent METAR/SPECI
23:30
V
5 °C 10 km+ - Var Var 2 kt METAR LEMD 292230Z VRB02KT CAVOK 05/02 Q1020 NOSIG
23:00
V
5 °C 10 km+ - 020° 020° 3 kt METAR LEMD 292200Z 02003KT 360V070 CAVOK 05/03 Q1020 NOSIG
22:30
V
5 °C 10 km+ - Var Var 2 kt METAR LEMD 292130Z VRB02KT CAVOK 05/03 Q1020 NOSIG
22:00
V
5 °C 10 km+ - 340° 340° 3 kt METAR LEMD 292100Z 34003KT CAVOK 05/03 Q1020 NOSIG
21:30
V
5 °C 10 km+ - 040° 040° 3 kt METAR LEMD 292030Z 04003KT CAVOK 05/03 Q1020 NOSIG
21:00
V
6 °C 10 km+ - 310° 310° 4 kt METAR LEMD 292000Z 31004KT CAVOK 06/03 Q1020 NOSIG
20:30
V
7 °C 10 km+ - Var Var 1 kt METAR LEMD 291930Z VRB01KT CAVOK 07/03 Q1020 NOSIG
20:00
V
7 °C 10 km+ - Var Var 2 kt METAR LEMD 291900Z VRB02KT CAVOK 07/02 Q1020 NOSIG
19:30
V
7 °C 10 km+ - Var 000° 0 kt METAR LEMD 291830Z 00000KT CAVOK 07/02 Q1020 NOSIG
19:00
V
7 °C 10 km+ - 360° 360° 3 kt METAR LEMD 291800Z 36003KT CAVOK 07/02 Q1020 NOSIG
18:30
V
7 °C 10 km+ - Var 000° 0 kt METAR LEMD 291730Z 00000KT CAVOK 07/02 Q1020 NOSIG
18:00
V
8 °C 10 km+ - Var 000° 0 kt METAR LEMD 291700Z 00000KT CAVOK 08/03 Q1020 NOSIG
17:30
V
11 °C 10 km+ - Var Var 2 kt METAR LEMD 291630Z VRB02KT CAVOK 11/02 Q1020 NOSIG
17:00
V
12 °C 10 km+ - Var 000° 0 kt METAR LEMD 291600Z 00000KT CAVOK 12/02 Q1020 NOSIG
16:30
V
13 °C 10 km+ - Var 000° 0 kt METAR LEMD 291530Z 00000KT CAVOK 13/01 Q1020 NOSIG
16:00
V
12 °C 10 km+ - Var Var 2 kt METAR LEMD 291500Z VRB02KT CAVOK 12/01 Q1020 NOSIG
15:30
V
12 °C 10 km+ - Var Var 2 kt METAR LEMD 291430Z VRB02KT CAVOK 12/02 Q1020 NOSIG
15:00
V
12 °C 10 km+ - Var Var 2 kt METAR LEMD 291400Z VRB02KT CAVOK 12/02 Q1021 NOSIG
14:30
V
12 °C 10 km+ - Var Var 3 kt METAR LEMD 291330Z VRB03KT CAVOK 12/03 Q1021 NOSIG
14:00
V
11 °C 10 km+ - 300° 300° 2 kt METAR LEMD 291300Z 30002KT CAVOK 11/03 Q1022 NOSIG
13:30
V
11 °C 10 km+ - Var Var 2 kt METAR LEMD 291230Z VRB02KT CAVOK 11/03 Q1022 NOSIG
13:00
V
11 °C 10 km+ - 200° 200° 2 kt METAR LEMD 291200Z 20002KT CAVOK 11/02 Q1022 NOSIG
12:30
V
10 °C 10 km+ - Var Var 2 kt METAR LEMD 291130Z VRB02KT CAVOK 10/03 Q1023 NOSIG
12:00
V
9 °C 10 km+ - 170° 170° 2 kt METAR LEMD 291100Z 17002KT CAVOK 09/03 Q1023 NOSIG
11:30
V
8 °C 10 km+ - Var Var 2 kt METAR LEMD 291030Z VRB02KT CAVOK 08/02 Q1023 NOSIG
11:00
V
7 °C 10 km+ - Var 000° 0 kt METAR LEMD 291000Z 00000KT CAVOK 07/03 Q1024 NOSIG

Nous et des tiers suivons ton comportement Internet sur notre site Web à l'aide de cookies. Si tu continues, nous supposons que tu es d'accord avec notre Politique en matière de cookies.